Terminal Aerodrome Forecast
Issued by NWS

Home | Current Version | Previous Version | Text Only | Print | Product List | Glossary Off
Versions: 1 2 3 4 5 6 7 8 9 10 11 12 13 14 15 16 17 18

000
FTUS42 KMHX 241858 AAA
TAFISO
TAF AMD
KISO 241858Z 2419/2518 12011KT P6SM VCSH SCT008 BKN040
      TEMPO 2419/2422 BKN008
     FM250200 16007KT P6SM SCT010
     FM250500 13004KT 5SM BR SCT020
     FM250900 13003KT 2SM BR SCT015
     FM251200 13003KT P6SM BKN020
     FM251500 21008KT P6SM BKN025
      AMD LTD TO CLD VIS AND WIND=

USA.gov is the U.S. government's official web portal to all federal, state and local government web resources and services.